sensor_id;sensor_type;location;lat;lon;timestamp;temperature;humidity
3986;DHT22;2007;48.750;9.278;2022-07-03T00:00:55;24.60;56.20
3986;DHT22;2007;48.750;9.278;2022-07-03T00:03:23;24.60;56.20
3986;DHT22;2007;48.750;9.278;2022-07-03T00:05:51;24.60;56.20
3986;DHT22;2007;48.750;9.278;2022-07-03T00:08:19;24.60;56.20
3986;DHT22;2007;48.750;9.278;2022-07-03T00:10:47;24.60;56.20
3986;DHT22;2007;48.750;9.278;2022-07-03T00:13:15;24.60;56.10
3986;DHT22;2007;48.750;9.278;2022-07-03T00:15:44;24.60;56.10
3986;DHT22;2007;48.750;9.278;2022-07-03T00:18:13;24.60;56.10
3986;DHT22;2007;48.750;9.278;2022-07-03T00:20:45;24.60;56.80
3986;DHT22;2007;48.750;9.278;2022-07-03T00:23:16;24.60;56.10
3986;DHT22;2007;48.750;9.278;2022-07-03T00:25:44;24.60;56.10
3986;DHT22;2007;48.750;9.278;2022-07-03T00:28:12;24.60;56.10
3986;DHT22;2007;48.750;9.278;2022-07-03T00:30:41;24.60;56.10
3986;DHT22;2007;48.750;9.278;2022-07-03T00:33:13;24.60;56.10
3986;DHT22;2007;48.750;9.278;2022-07-03T00:35:43;24.60;56.10
3986;DHT22;2007;48.750;9.278;2022-07-03T00:38:11;24.60;56.10
3986;DHT22;2007;48.750;9.278;2022-07-03T00:40:39;24.60;56.10
3986;DHT22;2007;48.750;9.278;2022-07-03T00:43:07;24.60;56.10
3986;DHT22;2007;48.750;9.278;2022-07-03T00:45:38;24.60;56.10
3986;DHT22;2007;48.750;9.278;2022-07-03T00:48:10;24.60;56.10
3986;DHT22;2007;48.750;9.278;2022-07-03T00:50:50;24.60;56.10
3986;DHT22;2007;48.750;9.278;2022-07-03T00:53:27;24.60;56.10
3986;DHT22;2007;48.750;9.278;2022-07-03T00:55:56;24.60;56.10
3986;DHT22;2007;48.750;9.278;2022-07-03T00:58:25;24.60;56.10
3986;DHT22;2007;48.750;9.278;2022-07-03T01:00:54;24.60;56.00
3986;DHT22;2007;48.750;9.278;2022-07-03T01:03:25;24.60;56.10
3986;DHT22;2007;48.750;9.278;2022-07-03T01:05:56;24.60;56.00
3986;DHT22;2007;48.750;9.278;2022-07-03T01:08:35;24.60;56.00
3986;DHT22;2007;48.750;9.278;2022-07-03T01:11:10;24.60;56.10
3986;DHT22;2007;48.750;9.278;2022-07-03T01:13:46;24.60;56.00
3986;DHT22;2007;48.750;9.278;2022-07-03T01:16:21;24.60;56.00
3986;DHT22;2007;48.750;9.278;2022-07-03T01:18:54;24.60;56.00
3986;DHT22;2007;48.750;9.278;2022-07-03T01:21:54;24.60;56.00
3986;DHT22;2007;48.750;9.278;2022-07-03T01:24:43;24.60;56.00
3986;DHT22;2007;48.750;9.278;2022-07-03T01:27:28;24.60;56.00
3986;DHT22;2007;48.750;9.278;2022-07-03T01:30:02;24.60;56.10
3986;DHT22;2007;48.750;9.278;2022-07-03T01:32:33;24.60;56.00
3986;DHT22;2007;48.750;9.278;2022-07-03T01:35:02;24.60;56.00
3986;DHT22;2007;48.750;9.278;2022-07-03T01:37:31;24.60;56.00
3986;DHT22;2007;48.750;9.278;2022-07-03T01:40:03;24.60;56.00
3986;DHT22;2007;48.750;9.278;2022-07-03T01:42:35;24.60;56.00
3986;DHT22;2007;48.750;9.278;2022-07-03T01:45:05;24.60;56.00
3986;DHT22;2007;48.750;9.278;2022-07-03T01:47:38;24.60;56.00
3986;DHT22;2007;48.750;9.278;2022-07-03T01:50:11;24.60;56.00
3986;DHT22;2007;48.750;9.278;2022-07-03T01:52:41;24.60;56.00
3986;DHT22;2007;48.750;9.278;2022-07-03T01:55:12;24.60;56.00
3986;DHT22;2007;48.750;9.278;2022-07-03T01:57:44;24.60;56.00
3986;DHT22;2007;48.750;9.278;2022-07-03T02:00:15;24.60;56.00
3986;DHT22;2007;48.750;9.278;2022-07-03T02:02:50;24.60;56.00
3986;DHT22;2007;48.750;9.278;2022-07-03T02:05:28;24.60;55.90
3986;DHT22;2007;48.750;9.278;2022-07-03T02:08:03;24.60;56.00
3986;DHT22;2007;48.750;9.278;2022-07-03T02:10:38;24.60;56.00
3986;DHT22;2007;48.750;9.278;2022-07-03T02:13:16;24.60;55.90
3986;DHT22;2007;48.750;9.278;2022-07-03T02:15:45;24.60;56.00
3986;DHT22;2007;48.750;9.278;2022-07-03T02:18:27;24.60;56.00
3986;DHT22;2007;48.750;9.278;2022-07-03T02:21:03;24.60;56.00
3986;DHT22;2007;48.750;9.278;2022-07-03T02:23:36;24.60;56.00
3986;DHT22;2007;48.750;9.278;2022-07-03T02:26:10;24.60;56.00
3986;DHT22;2007;48.750;9.278;2022-07-03T02:28:55;24.60;56.00
3986;DHT22;2007;48.750;9.278;2022-07-03T02:31:26;24.60;56.00
3986;DHT22;2007;48.750;9.278;2022-07-03T02:33:57;24.60;55.90
3986;DHT22;2007;48.750;9.278;2022-07-03T02:36:28;24.60;55.90
3986;DHT22;2007;48.750;9.278;2022-07-03T02:38:57;24.60;56.60
3986;DHT22;2007;48.750;9.278;2022-07-03T02:41:33;24.60;56.50
3986;DHT22;2007;48.750;9.278;2022-07-03T02:44:16;24.60;56.00
3986;DHT22;2007;48.750;9.278;2022-07-03T02:46:54;24.60;55.90
3986;DHT22;2007;48.750;9.278;2022-07-03T02:49:47;24.60;56.00
3986;DHT22;2007;48.750;9.278;2022-07-03T02:52:24;24.60;56.00
3986;DHT22;2007;48.750;9.278;2022-07-03T02:54:58;24.60;56.00
3986;DHT22;2007;48.750;9.278;2022-07-03T02:57:33;24.60;55.90
3986;DHT22;2007;48.750;9.278;2022-07-03T03:00:06;24.60;56.00
3986;DHT22;2007;48.750;9.278;2022-07-03T03:02:52;24.60;55.90
3986;DHT22;2007;48.750;9.278;2022-07-03T03:05:27;24.60;55.90
3986;DHT22;2007;48.750;9.278;2022-07-03T03:08:08;24.60;56.00
3986;DHT22;2007;48.750;9.278;2022-07-03T03:10:39;24.60;55.90
3986;DHT22;2007;48.750;9.278;2022-07-03T03:13:09;24.60;56.00
3986;DHT22;2007;48.750;9.278;2022-07-03T03:15:42;24.60;56.00
3986;DHT22;2007;48.750;9.278;2022-07-03T03:18:12;24.60;56.00
3986;DHT22;2007;48.750;9.278;2022-07-03T03:20:47;24.60;56.00
3986;DHT22;2007;48.750;9.278;2022-07-03T03:23:26;24.60;56.00
3986;DHT22;2007;48.750;9.278;2022-07-03T03:25:57;24.60;55.90
3986;DHT22;2007;48.750;9.278;2022-07-03T03:28:26;24.60;55.90
3986;DHT22;2007;48.750;9.278;2022-07-03T03:30:56;24.50;55.80
3986;DHT22;2007;48.750;9.278;2022-07-03T03:33:24;24.50;55.80
3986;DHT22;2007;48.750;9.278;2022-07-03T03:35:52;24.60;56.00
3986;DHT22;2007;48.750;9.278;2022-07-03T03:38:20;24.60;55.90
3986;DHT22;2007;48.750;9.278;2022-07-03T03:40:49;24.50;55.90
3986;DHT22;2007;48.750;9.278;2022-07-03T03:43:17;24.60;55.90
3986;DHT22;2007;48.750;9.278;2022-07-03T03:45:45;24.60;55.90
3986;DHT22;2007;48.750;9.278;2022-07-03T03:48:14;24.60;55.90
3986;DHT22;2007;48.750;9.278;2022-07-03T03:50:42;24.50;55.80
3986;DHT22;2007;48.750;9.278;2022-07-03T03:53:12;24.60;55.90
3986;DHT22;2007;48.750;9.278;2022-07-03T03:55:52;24.50;55.80
3986;DHT22;2007;48.750;9.278;2022-07-03T03:58:20;24.60;55.90
3986;DHT22;2007;48.750;9.278;2022-07-03T04:00:48;24.50;55.90
3986;DHT22;2007;48.750;9.278;2022-07-03T04:03:18;24.50;55.80
3986;DHT22;2007;48.750;9.278;2022-07-03T04:05:46;24.60;55.90
3986;DHT22;2007;48.750;9.278;2022-07-03T04:08:13;24.50;55.90
3986;DHT22;2007;48.750;9.278;2022-07-03T04:10:41;24.60;55.90
3986;DHT22;2007;48.750;9.278;2022-07-03T04:13:09;24.50;55.90
3986;DHT22;2007;48.750;9.278;2022-07-03T04:15:37;24.50;55.80
3986;DHT22;2007;48.750;9.278;2022-07-03T04:18:05;24.50;55.80
3986;DHT22;2007;48.750;9.278;2022-07-03T04:20:35;24.50;55.80
3986;DHT22;2007;48.750;9.278;2022-07-03T04:23:03;24.50;55.80
3986;DHT22;2007;48.750;9.278;2022-07-03T04:25:31;24.50;55.80
3986;DHT22;2007;48.750;9.278;2022-07-03T04:27:59;24.50;55.90
3986;DHT22;2007;48.750;9.278;2022-07-03T04:30:47;24.50;55.90
3986;DHT22;2007;48.750;9.278;2022-07-03T04:33:15;24.50;55.80
3986;DHT22;2007;48.750;9.278;2022-07-03T04:35:45;24.50;55.80
3986;DHT22;2007;48.750;9.278;2022-07-03T04:38:13;24.50;55.80
3986;DHT22;2007;48.750;9.278;2022-07-03T04:40:41;24.50;55.80
3986;DHT22;2007;48.750;9.278;2022-07-03T04:43:09;24.50;55.90
3986;DHT22;2007;48.750;9.278;2022-07-03T04:45:37;24.50;55.90
3986;DHT22;2007;48.750;9.278;2022-07-03T04:48:05;24.50;55.80
3986;DHT22;2007;48.750;9.278;2022-07-03T04:50:33;24.50;55.90
3986;DHT22;2007;48.750;9.278;2022-07-03T04:53:02;24.50;55.90
3986;DHT22;2007;48.750;9.278;2022-07-03T04:55:30;24.50;55.90
3986;DHT22;2007;48.750;9.278;2022-07-03T04:57:58;24.50;55.90
3986;DHT22;2007;48.750;9.278;2022-07-03T05:00:26;24.50;55.90
3986;DHT22;2007;48.750;9.278;2022-07-03T05:02:54;24.50;55.80
3986;DHT22;2007;48.750;9.278;2022-07-03T05:05:22;24.50;55.80
3986;DHT22;2007;48.750;9.278;2022-07-03T05:07:50;24.50;55.90
3986;DHT22;2007;48.750;9.278;2022-07-03T05:10:20;24.50;55.90
3986;DHT22;2007;48.750;9.278;2022-07-03T05:12:48;24.50;55.90
3986;DHT22;2007;48.750;9.278;2022-07-03T05:15:16;24.50;55.90
3986;DHT22;2007;48.750;9.278;2022-07-03T05:17:44;24.50;55.90
3986;DHT22;2007;48.750;9.278;2022-07-03T05:20:12;24.50;55.90
3986;DHT22;2007;48.750;9.278;2022-07-03T05:22:55;24.50;55.90
3986;DHT22;2007;48.750;9.278;2022-07-03T05:25:25;24.50;55.90
3986;DHT22;2007;48.750;9.278;2022-07-03T05:27:54;24.50;55.90
3986;DHT22;2007;48.750;9.278;2022-07-03T05:30:23;24.50;55.90
3986;DHT22;2007;48.750;9.278;2022-07-03T05:32:52;24.50;55.90
3986;DHT22;2007;48.750;9.278;2022-07-03T05:35:20;24.50;55.90
3986;DHT22;2007;48.750;9.278;2022-07-03T05:37:48;24.50;55.90
3986;DHT22;2007;48.750;9.278;2022-07-03T05:40:16;24.40;55.80
3986;DHT22;2007;48.750;9.278;2022-07-03T05:42:46;24.50;55.90
3986;DHT22;2007;48.750;9.278;2022-07-03T05:45:14;24.40;55.80
3986;DHT22;2007;48.750;9.278;2022-07-03T05:47:42;24.40;55.80
3986;DHT22;2007;48.750;9.278;2022-07-03T05:50:10;24.50;55.90
3986;DHT22;2007;48.750;9.278;2022-07-03T05:52:38;24.40;55.80
3986;DHT22;2007;48.750;9.278;2022-07-03T05:55:07;24.40;55.80
3986;DHT22;2007;48.750;9.278;2022-07-03T05:57:35;24.40;55.80
3986;DHT22;2007;48.750;9.278;2022-07-03T06:00:06;24.40;55.80
3986;DHT22;2007;48.750;9.278;2022-07-03T06:02:34;24.40;55.80
3986;DHT22;2007;48.750;9.278;2022-07-03T06:05:02;24.40;55.80
3986;DHT22;2007;48.750;9.278;2022-07-03T06:07:30;24.50;55.90
3986;DHT22;2007;48.750;9.278;2022-07-03T06:09:58;24.40;55.80
3986;DHT22;2007;48.750;9.278;2022-07-03T06:12:26;24.40;55.80
3986;DHT22;2007;48.750;9.278;2022-07-03T06:14:54;24.40;55.80
3986;DHT22;2007;48.750;9.278;2022-07-03T06:17:29;24.40;55.80
3986;DHT22;2007;48.750;9.278;2022-07-03T06:19:57;24.40;55.80
3986;DHT22;2007;48.750;9.278;2022-07-03T06:22:25;24.40;55.80
3986;DHT22;2007;48.750;9.278;2022-07-03T06:24:53;24.50;55.90
3986;DHT22;2007;48.750;9.278;2022-07-03T06:27:21;24.40;55.80
3986;DHT22;2007;48.750;9.278;2022-07-03T06:29:49;24.40;55.80
3986;DHT22;2007;48.750;9.278;2022-07-03T06:32:17;24.40;55.80
3986;DHT22;2007;48.750;9.278;2022-07-03T06:34:47;24.40;55.80
3986;DHT22;2007;48.750;9.278;2022-07-03T06:37:15;24.40;55.80
3986;DHT22;2007;48.750;9.278;2022-07-03T06:39:43;24.40;55.80
3986;DHT22;2007;48.750;9.278;2022-07-03T06:42:11;24.40;55.90
3986;DHT22;2007;48.750;9.278;2022-07-03T06:44:39;24.40;55.90
3986;DHT22;2007;48.750;9.278;2022-07-03T06:47:08;24.40;55.90
3986;DHT22;2007;48.750;9.278;2022-07-03T06:49:36;24.40;55.90
3986;DHT22;2007;48.750;9.278;2022-07-03T06:52:06;24.40;55.90
3986;DHT22;2007;48.750;9.278;2022-07-03T06:54:34;24.40;55.90
3986;DHT22;2007;48.750;9.278;2022-07-03T06:57:04;24.40;55.90
3986;DHT22;2007;48.750;9.278;2022-07-03T06:59:32;24.40;55.90
3986;DHT22;2007;48.750;9.278;2022-07-03T07:02:00;24.40;55.90
3986;DHT22;2007;48.750;9.278;2022-07-03T07:04:29;24.40;55.90
3986;DHT22;2007;48.750;9.278;2022-07-03T07:06:57;24.40;56.00
3986;DHT22;2007;48.750;9.278;2022-07-03T07:09:26;24.40;56.00
3986;DHT22;2007;48.750;9.278;2022-07-03T07:11:54;24.40;56.00
3986;DHT22;2007;48.750;9.278;2022-07-03T07:14:22;24.40;56.00
3986;DHT22;2007;48.750;9.278;2022-07-03T07:16:51;24.40;56.00
3986;DHT22;2007;48.750;9.278;2022-07-03T07:19:19;24.40;56.00
3986;DHT22;2007;48.750;9.278;2022-07-03T07:21:47;24.40;56.00
3986;DHT22;2007;48.750;9.278;2022-07-03T07:24:14;24.40;56.00
3986;DHT22;2007;48.750;9.278;2022-07-03T07:26:44;24.40;56.10
3986;DHT22;2007;48.750;9.278;2022-07-03T07:29:12;24.40;56.00
3986;DHT22;2007;48.750;9.278;2022-07-03T07:31:40;24.40;56.00
3986;DHT22;2007;48.750;9.278;2022-07-03T07:34:08;24.40;56.00
3986;DHT22;2007;48.750;9.278;2022-07-03T07:36:36;24.40;56.00
3986;DHT22;2007;48.750;9.278;2022-07-03T07:39:04;24.40;56.10
3986;DHT22;2007;48.750;9.278;2022-07-03T07:41:32;24.40;56.00
3986;DHT22;2007;48.750;9.278;2022-07-03T07:44:01;24.40;56.10
3986;DHT22;2007;48.750;9.278;2022-07-03T07:46:29;24.40;56.10
3986;DHT22;2007;48.750;9.278;2022-07-03T07:48:58;24.40;56.10
3986;DHT22;2007;48.750;9.278;2022-07-03T07:51:26;24.40;56.10
3986;DHT22;2007;48.750;9.278;2022-07-03T07:53:54;24.40;56.10
3986;DHT22;2007;48.750;9.278;2022-07-03T07:56:24;24.40;56.10
3986;DHT22;2007;48.750;9.278;2022-07-03T07:58:52;24.40;56.10
3986;DHT22;2007;48.750;9.278;2022-07-03T08:01:21;24.40;56.10
3986;DHT22;2007;48.750;9.278;2022-07-03T08:04:07;24.40;56.10
3986;DHT22;2007;48.750;9.278;2022-07-03T08:06:52;24.40;56.10
3986;DHT22;2007;48.750;9.278;2022-07-03T08:09:20;24.40;56.10
3986;DHT22;2007;48.750;9.278;2022-07-03T08:11:48;24.40;56.10
3986;DHT22;2007;48.750;9.278;2022-07-03T08:14:16;24.40;56.10
3986;DHT22;2007;48.750;9.278;2022-07-03T08:16:45;24.40;56.10
3986;DHT22;2007;48.750;9.278;2022-07-03T08:19:13;24.40;56.10
3986;DHT22;2007;48.750;9.278;2022-07-03T08:21:42;24.40;56.10
3986;DHT22;2007;48.750;9.278;2022-07-03T08:24:09;24.40;56.10
3986;DHT22;2007;48.750;9.278;2022-07-03T08:26:41;24.40;56.10
3986;DHT22;2007;48.750;9.278;2022-07-03T08:29:09;24.40;56.10
3986;DHT22;2007;48.750;9.278;2022-07-03T08:31:37;24.40;56.10
3986;DHT22;2007;48.750;9.278;2022-07-03T08:34:06;24.40;56.10
3986;DHT22;2007;48.750;9.278;2022-07-03T08:36:35;24.40;56.10
3986;DHT22;2007;48.750;9.278;2022-07-03T08:39:03;24.40;56.10
3986;DHT22;2007;48.750;9.278;2022-07-03T08:41:32;24.40;56.10
3986;DHT22;2007;48.750;9.278;2022-07-03T08:44:01;24.40;56.10
3986;DHT22;2007;48.750;9.278;2022-07-03T08:46:31;24.40;56.10
3986;DHT22;2007;48.750;9.278;2022-07-03T08:48:59;24.40;56.10
3986;DHT22;2007;48.750;9.278;2022-07-03T08:51:30;24.40;56.10
3986;DHT22;2007;48.750;9.278;2022-07-03T08:53:59;24.40;56.10
3986;DHT22;2007;48.750;9.278;2022-07-03T08:56:29;24.40;56.10
3986;DHT22;2007;48.750;9.278;2022-07-03T08:58:57;24.40;56.10
3986;DHT22;2007;48.750;9.278;2022-07-03T09:01:26;24.40;56.10
3986;DHT22;2007;48.750;9.278;2022-07-03T09:03:54;24.40;56.10
3986;DHT22;2007;48.750;9.278;2022-07-03T09:06:24;24.40;56.10
3986;DHT22;2007;48.750;9.278;2022-07-03T09:08:55;24.40;56.10
3986;DHT22;2007;48.750;9.278;2022-07-03T09:11:23;24.40;56.10
3986;DHT22;2007;48.750;9.278;2022-07-03T09:13:51;24.40;56.10
3986;DHT22;2007;48.750;9.278;2022-07-03T09:16:21;24.40;56.10
3986;DHT22;2007;48.750;9.278;2022-07-03T09:18:49;24.40;56.10
3986;DHT22;2007;48.750;9.278;2022-07-03T09:21:17;24.40;56.10
3986;DHT22;2007;48.750;9.278;2022-07-03T09:23:45;24.40;56.10
3986;DHT22;2007;48.750;9.278;2022-07-03T09:26:17;24.40;56.10
3986;DHT22;2007;48.750;9.278;2022-07-03T09:28:47;24.40;56.10
3986;DHT22;2007;48.750;9.278;2022-07-03T09:31:19;24.40;56.10
3986;DHT22;2007;48.750;9.278;2022-07-03T09:33:57;24.40;56.10
3986;DHT22;2007;48.750;9.278;2022-07-03T09:36:39;24.40;56.10
3986;DHT22;2007;48.750;9.278;2022-07-03T09:39:14;24.40;56.10
3986;DHT22;2007;48.750;9.278;2022-07-03T09:41:58;24.40;56.10
3986;DHT22;2007;48.750;9.278;2022-07-03T09:44:30;24.40;56.10
3986;DHT22;2007;48.750;9.278;2022-07-03T09:47:10;24.40;56.20
3986;DHT22;2007;48.750;9.278;2022-07-03T09:49:49;24.40;56.20
3986;DHT22;2007;48.750;9.278;2022-07-03T09:52:27;24.40;56.10
3986;DHT22;2007;48.750;9.278;2022-07-03T09:54:55;24.40;56.10
3986;DHT22;2007;48.750;9.278;2022-07-03T09:57:27;24.40;56.10
3986;DHT22;2007;48.750;9.278;2022-07-03T10:00:09;24.40;56.10
3986;DHT22;2007;48.750;9.278;2022-07-03T10:02:52;24.40;56.10
3986;DHT22;2007;48.750;9.278;2022-07-03T10:05:20;24.40;56.10
3986;DHT22;2007;48.750;9.278;2022-07-03T10:07:50;24.40;56.20
3986;DHT22;2007;48.750;9.278;2022-07-03T10:10:19;24.40;56.10
3986;DHT22;2007;48.750;9.278;2022-07-03T10:12:51;24.40;56.10
3986;DHT22;2007;48.750;9.278;2022-07-03T10:15:20;24.40;56.20
3986;DHT22;2007;48.750;9.278;2022-07-03T10:17:52;24.40;56.20
3986;DHT22;2007;48.750;9.278;2022-07-03T10:20:24;24.40;56.20
3986;DHT22;2007;48.750;9.278;2022-07-03T10:22:54;24.40;56.20
3986;DHT22;2007;48.750;9.278;2022-07-03T10:25:23;24.40;56.20
3986;DHT22;2007;48.750;9.278;2022-07-03T10:27:52;24.30;56.10
3986;DHT22;2007;48.750;9.278;2022-07-03T10:30:21;24.40;56.20
3986;DHT22;2007;48.750;9.278;2022-07-03T10:32:50;24.40;56.20
3986;DHT22;2007;48.750;9.278;2022-07-03T10:35:21;24.40;56.20
3986;DHT22;2007;48.750;9.278;2022-07-03T10:37:58;24.30;56.10
3986;DHT22;2007;48.750;9.278;2022-07-03T10:40:36;24.40;56.20
3986;DHT22;2007;48.750;9.278;2022-07-03T10:43:28;24.40;56.20
3986;DHT22;2007;48.750;9.278;2022-07-03T10:46:16;24.40;56.20
3986;DHT22;2007;48.750;9.278;2022-07-03T10:49:01;24.40;56.20
3986;DHT22;2007;48.750;9.278;2022-07-03T10:51:30;24.30;56.10
3986;DHT22;2007;48.750;9.278;2022-07-03T10:54:17;24.40;56.20
3986;DHT22;2007;48.750;9.278;2022-07-03T10:57:07;24.40;56.10
3986;DHT22;2007;48.750;9.278;2022-07-03T11:00:03;24.30;56.00
3986;DHT22;2007;48.750;9.278;2022-07-03T11:02:34;24.40;56.10
3986;DHT22;2007;48.750;9.278;2022-07-03T11:05:15;24.40;56.20
3986;DHT22;2007;48.750;9.278;2022-07-03T11:08:05;24.40;56.10
3986;DHT22;2007;48.750;9.278;2022-07-03T11:10:37;24.40;56.10
3986;DHT22;2007;48.750;9.278;2022-07-03T11:13:18;24.30;56.70
3986;DHT22;2007;48.750;9.278;2022-07-03T11:15:52;24.30;56.10
3986;DHT22;2007;48.750;9.278;2022-07-03T11:18:28;24.30;56.00
3986;DHT22;2007;48.750;9.278;2022-07-03T11:24:26;24.40;56.20
3986;DHT22;2007;48.750;9.278;2022-07-03T11:27:26;24.30;56.00
3986;DHT22;2007;48.750;9.278;2022-07-03T11:29:58;24.30;56.00
3986;DHT22;2007;48.750;9.278;2022-07-03T11:32:48;24.40;56.10
3986;DHT22;2007;48.750;9.278;2022-07-03T11:35:42;24.40;56.10
3986;DHT22;2007;48.750;9.278;2022-07-03T11:38:11;24.30;56.00
3986;DHT22;2007;48.750;9.278;2022-07-03T11:40:41;24.40;56.20
3986;DHT22;2007;48.750;9.278;2022-07-03T11:43:10;24.30;56.10
3986;DHT22;2007;48.750;9.278;2022-07-03T11:45:39;24.30;56.10
3986;DHT22;2007;48.750;9.278;2022-07-03T11:48:13;24.40;56.20
3986;DHT22;2007;48.750;9.278;2022-07-03T11:50:42;24.40;56.20
3986;DHT22;2007;48.750;9.278;2022-07-03T11:53:24;24.30;56.10
3986;DHT22;2007;48.750;9.278;2022-07-03T11:55:55;24.30;56.10
3986;DHT22;2007;48.750;9.278;2022-07-03T11:58:24;24.30;56.10
3986;DHT22;2007;48.750;9.278;2022-07-03T12:00:53;24.30;56.10
3986;DHT22;2007;48.750;9.278;2022-07-03T12:03:24;24.30;56.10
3986;DHT22;2007;48.750;9.278;2022-07-03T12:05:55;24.40;56.20
3986;DHT22;2007;48.750;9.278;2022-07-03T12:08:25;24.30;56.10
3986;DHT22;2007;48.750;9.278;2022-07-03T12:10:59;24.40;56.20
3986;DHT22;2007;48.750;9.278;2022-07-03T12:13:27;24.30;56.10
3986;DHT22;2007;48.750;9.278;2022-07-03T12:16:08;24.40;56.20
3986;DHT22;2007;48.750;9.278;2022-07-03T12:18:45;24.40;56.20
3986;DHT22;2007;48.750;9.278;2022-07-03T12:21:14;24.30;56.10
3986;DHT22;2007;48.750;9.278;2022-07-03T12:23:44;24.30;56.10
3986;DHT22;2007;48.750;9.278;2022-07-03T12:26:12;24.30;56.10
3986;DHT22;2007;48.750;9.278;2022-07-03T12:28:40;24.40;56.30
3986;DHT22;2007;48.750;9.278;2022-07-03T12:31:08;24.30;56.10
3986;DHT22;2007;48.750;9.278;2022-07-03T12:33:36;24.40;56.30
3986;DHT22;2007;48.750;9.278;2022-07-03T12:36:09;24.40;56.20
3986;DHT22;2007;48.750;9.278;2022-07-03T12:38:37;24.30;56.10
3986;DHT22;2007;48.750;9.278;2022-07-03T12:41:13;24.40;56.20
3986;DHT22;2007;48.750;9.278;2022-07-03T12:43:45;24.40;56.20
3986;DHT22;2007;48.750;9.278;2022-07-03T12:46:18;24.40;56.20
3986;DHT22;2007;48.750;9.278;2022-07-03T12:48:47;24.40;56.20
3986;DHT22;2007;48.750;9.278;2022-07-03T12:51:35;24.40;56.20
3986;DHT22;2007;48.750;9.278;2022-07-03T12:54:04;24.40;56.20
3986;DHT22;2007;48.750;9.278;2022-07-03T12:56:32;24.40;56.20
3986;DHT22;2007;48.750;9.278;2022-07-03T12:59:00;24.40;56.30
3986;DHT22;2007;48.750;9.278;2022-07-03T13:01:59;24.40;56.20
3986;DHT22;2007;48.750;9.278;2022-07-03T13:04:32;24.40;56.20
3986;DHT22;2007;48.750;9.278;2022-07-03T13:07:02;24.40;56.20
3986;DHT22;2007;48.750;9.278;2022-07-03T13:09:31;24.40;56.30
3986;DHT22;2007;48.750;9.278;2022-07-03T13:11:59;24.40;56.30
3986;DHT22;2007;48.750;9.278;2022-07-03T13:14:27;24.40;56.30
3986;DHT22;2007;48.750;9.278;2022-07-03T13:16:58;24.40;56.30
3986;DHT22;2007;48.750;9.278;2022-07-03T13:19:27;24.40;56.30
3986;DHT22;2007;48.750;9.278;2022-07-03T13:21:57;24.40;56.30
3986;DHT22;2007;48.750;9.278;2022-07-03T13:24:27;24.40;56.30
3986;DHT22;2007;48.750;9.278;2022-07-03T13:26:55;24.40;56.40
3986;DHT22;2007;48.750;9.278;2022-07-03T13:29:25;24.40;56.30
3986;DHT22;2007;48.750;9.278;2022-07-03T13:31:53;24.40;56.30
3986;DHT22;2007;48.750;9.278;2022-07-03T13:34:21;24.40;56.30
3986;DHT22;2007;48.750;9.278;2022-07-03T13:36:49;24.40;56.30
3986;DHT22;2007;48.750;9.278;2022-07-03T13:39:17;24.40;56.90
3986;DHT22;2007;48.750;9.278;2022-07-03T13:41:47;24.40;56.30
3986;DHT22;2007;48.750;9.278;2022-07-03T13:44:15;24.40;56.30
3986;DHT22;2007;48.750;9.278;2022-07-03T13:46:43;24.40;56.30
3986;DHT22;2007;48.750;9.278;2022-07-03T13:49:16;24.40;56.30
3986;DHT22;2007;48.750;9.278;2022-07-03T13:51:44;24.40;56.30
3986;DHT22;2007;48.750;9.278;2022-07-03T13:54:13;24.40;56.30
3986;DHT22;2007;48.750;9.278;2022-07-03T13:56:40;24.40;56.30
3986;DHT22;2007;48.750;9.278;2022-07-03T13:59:11;24.40;56.30
3986;DHT22;2007;48.750;9.278;2022-07-03T14:01:39;24.40;56.30
3986;DHT22;2007;48.750;9.278;2022-07-03T14:04:07;24.40;56.30
3986;DHT22;2007;48.750;9.278;2022-07-03T14:06:35;24.50;56.40
3986;DHT22;2007;48.750;9.278;2022-07-03T14:09:03;24.50;56.40
3986;DHT22;2007;48.750;9.278;2022-07-03T14:11:31;24.50;56.40
3986;DHT22;2007;48.750;9.278;2022-07-03T14:13:59;24.50;56.40
3986;DHT22;2007;48.750;9.278;2022-07-03T14:16:29;24.50;56.40
3986;DHT22;2007;48.750;9.278;2022-07-03T14:18:57;24.50;56.40
3986;DHT22;2007;48.750;9.278;2022-07-03T14:21:25;24.50;56.40
3986;DHT22;2007;48.750;9.278;2022-07-03T14:23:53;24.50;56.40
3986;DHT22;2007;48.750;9.278;2022-07-03T14:26:21;24.50;56.40
3986;DHT22;2007;48.750;9.278;2022-07-03T14:29:03;24.50;56.40
3986;DHT22;2007;48.750;9.278;2022-07-03T14:31:52;24.50;56.40
3986;DHT22;2007;48.750;9.278;2022-07-03T14:34:37;24.50;56.40
3986;DHT22;2007;48.750;9.278;2022-07-03T14:37:06;24.50;56.40
3986;DHT22;2007;48.750;9.278;2022-07-03T14:39:34;24.50;56.40
3986;DHT22;2007;48.750;9.278;2022-07-03T14:42:02;24.50;56.40
3986;DHT22;2007;48.750;9.278;2022-07-03T14:44:30;24.50;56.40
3986;DHT22;2007;48.750;9.278;2022-07-03T14:47:00;24.50;56.40
3986;DHT22;2007;48.750;9.278;2022-07-03T14:49:28;24.50;56.40
3986;DHT22;2007;48.750;9.278;2022-07-03T14:51:56;24.50;56.40
3986;DHT22;2007;48.750;9.278;2022-07-03T14:54:24;24.60;56.60
3986;DHT22;2007;48.750;9.278;2022-07-03T14:56:53;24.60;56.60
3986;DHT22;2007;48.750;9.278;2022-07-03T14:59:33;24.60;56.60
3986;DHT22;2007;48.750;9.278;2022-07-03T15:02:05;24.60;56.60
3986;DHT22;2007;48.750;9.278;2022-07-03T15:04:40;24.60;56.60
3986;DHT22;2007;48.750;9.278;2022-07-03T15:07:18;24.60;56.60
3986;DHT22;2007;48.750;9.278;2022-07-03T15:09:52;24.60;56.60
3986;DHT22;2007;48.750;9.278;2022-07-03T15:12:23;24.60;56.60
3986;DHT22;2007;48.750;9.278;2022-07-03T15:14:56;24.60;56.60
3986;DHT22;2007;48.750;9.278;2022-07-03T15:17:26;24.60;56.60
3986;DHT22;2007;48.750;9.278;2022-07-03T15:19:55;24.60;56.60
3986;DHT22;2007;48.750;9.278;2022-07-03T15:22:24;24.60;56.60
3986;DHT22;2007;48.750;9.278;2022-07-03T15:24:53;24.60;56.60
3986;DHT22;2007;48.750;9.278;2022-07-03T15:27:22;24.60;56.60
3986;DHT22;2007;48.750;9.278;2022-07-03T15:29:50;24.60;56.60
3986;DHT22;2007;48.750;9.278;2022-07-03T15:32:19;24.60;56.60
3986;DHT22;2007;48.750;9.278;2022-07-03T15:34:48;24.60;56.60
3986;DHT22;2007;48.750;9.278;2022-07-03T15:37:26;24.60;56.60
3986;DHT22;2007;48.750;9.278;2022-07-03T15:40:03;24.60;56.60
3986;DHT22;2007;48.750;9.278;2022-07-03T15:42:51;24.60;56.60
3986;DHT22;2007;48.750;9.278;2022-07-03T15:45:32;24.70;56.60
3986;DHT22;2007;48.750;9.278;2022-07-03T15:48:09;24.70;57.30
3986;DHT22;2007;48.750;9.278;2022-07-03T15:50:43;24.60;56.60
3986;DHT22;2007;48.750;9.278;2022-07-03T15:53:18;24.70;56.60
3986;DHT22;2007;48.750;9.278;2022-07-03T15:55:47;24.70;56.70
3986;DHT22;2007;48.750;9.278;2022-07-03T15:58:17;24.70;56.70
3986;DHT22;2007;48.750;9.278;2022-07-03T16:00:48;24.70;56.60
3986;DHT22;2007;48.750;9.278;2022-07-03T16:03:46;24.70;56.60
3986;DHT22;2007;48.750;9.278;2022-07-03T16:06:17;24.70;56.70
3986;DHT22;2007;48.750;9.278;2022-07-03T16:08:47;24.70;56.70
3986;DHT22;2007;48.750;9.278;2022-07-03T16:11:16;24.70;56.70
3986;DHT22;2007;48.750;9.278;2022-07-03T16:13:45;24.70;56.60
3986;DHT22;2007;48.750;9.278;2022-07-03T16:16:17;24.70;56.60
3986;DHT22;2007;48.750;9.278;2022-07-03T16:18:49;24.70;56.70
3986;DHT22;2007;48.750;9.278;2022-07-03T16:21:20;24.70;56.70
3986;DHT22;2007;48.750;9.278;2022-07-03T16:23:49;24.70;56.60
3986;DHT22;2007;48.750;9.278;2022-07-03T16:26:18;24.80;56.70
3986;DHT22;2007;48.750;9.278;2022-07-03T16:28:46;24.80;56.70
3986;DHT22;2007;48.750;9.278;2022-07-03T16:31:16;24.80;56.80
3986;DHT22;2007;48.750;9.278;2022-07-03T16:33:54;24.80;56.70